sensor_id;sensor_type;location;lat;lon;timestamp;temperature;humidity
5647;DHT22;2845;48.626;9.362;2024-02-21T00:00:42;4.30;99.40
5647;DHT22;2845;48.626;9.362;2024-02-21T00:03:16;4.30;99.30
5647;DHT22;2845;48.626;9.362;2024-02-21T00:05:50;4.30;99.50
5647;DHT22;2845;48.626;9.362;2024-02-21T00:08:24;4.30;99.30
5647;DHT22;2845;48.626;9.362;2024-02-21T00:11:00;4.20;99.30
5647;DHT22;2845;48.626;9.362;2024-02-21T00:13:34;4.30;99.40
5647;DHT22;2845;48.626;9.362;2024-02-21T00:16:08;4.30;99.30
5647;DHT22;2845;48.626;9.362;2024-02-21T00:18:43;4.40;99.30
5647;DHT22;2845;48.626;9.362;2024-02-21T00:21:18;4.40;99.20
5647;DHT22;2845;48.626;9.362;2024-02-21T00:23:52;4.40;99.30
5647;DHT22;2845;48.626;9.362;2024-02-21T00:26:27;4.40;99.40
5647;DHT22;2845;48.626;9.362;2024-02-21T00:29:01;4.30;99.30
5647;DHT22;2845;48.626;9.362;2024-02-21T00:31:40;4.30;99.40
5647;DHT22;2845;48.626;9.362;2024-02-21T00:34:14;4.30;99.40
5647;DHT22;2845;48.626;9.362;2024-02-21T00:36:48;4.30;99.60
5647;DHT22;2845;48.626;9.362;2024-02-21T00:39:23;4.30;99.60
5647;DHT22;2845;48.626;9.362;2024-02-21T00:41:58;4.40;99.50
5647;DHT22;2845;48.626;9.362;2024-02-21T00:44:32;4.30;99.30
5647;DHT22;2845;48.626;9.362;2024-02-21T00:47:07;4.10;99.50
5647;DHT22;2845;48.626;9.362;2024-02-21T00:49:41;4.50;99.80
5647;DHT22;2845;48.626;9.362;2024-02-21T00:52:15;4.00;99.80
5647;DHT22;2845;48.626;9.362;2024-02-21T00:54:49;4.00;99.90
5647;DHT22;2845;48.626;9.362;2024-02-21T00:57:28;4.10;99.90
5647;DHT22;2845;48.626;9.362;2024-02-21T01:00:02;4.10;99.90
5647;DHT22;2845;48.626;9.362;2024-02-21T01:02:37;4.20;99.90
5647;DHT22;2845;48.626;9.362;2024-02-21T01:05:11;4.20;99.90
5647;DHT22;2845;48.626;9.362;2024-02-21T01:07:45;4.30;99.90
5647;DHT22;2845;48.626;9.362;2024-02-21T01:10:19;4.30;99.90
5647;DHT22;2845;48.626;9.362;2024-02-21T01:12:55;4.40;99.90
5647;DHT22;2845;48.626;9.362;2024-02-21T01:15:29;4.40;99.90
5647;DHT22;2845;48.626;9.362;2024-02-21T01:18:04;4.30;99.90
5647;DHT22;2845;48.626;9.362;2024-02-21T01:20:38;4.30;99.90
5647;DHT22;2845;48.626;9.362;2024-02-21T01:23:12;4.30;99.90
5647;DHT22;2845;48.626;9.362;2024-02-21T01:25:46;4.30;99.90
5647;DHT22;2845;48.626;9.362;2024-02-21T01:28:21;4.40;99.90
5647;DHT22;2845;48.626;9.362;2024-02-21T01:30:56;4.40;99.90
5647;DHT22;2845;48.626;9.362;2024-02-21T01:33:30;4.40;99.90
5647;DHT22;2845;48.626;9.362;2024-02-21T01:36:07;4.40;99.90
5647;DHT22;2845;48.626;9.362;2024-02-21T01:38:41;4.40;99.90
5647;DHT22;2845;48.626;9.362;2024-02-21T01:41:16;4.40;99.90
5647;DHT22;2845;48.626;9.362;2024-02-21T01:43:51;4.40;99.90
5647;DHT22;2845;48.626;9.362;2024-02-21T01:46:25;4.40;99.90
5647;DHT22;2845;48.626;9.362;2024-02-21T01:49:01;4.50;99.90
5647;DHT22;2845;48.626;9.362;2024-02-21T01:51:38;4.50;99.90
5647;DHT22;2845;48.626;9.362;2024-02-21T01:54:14;4.50;99.90
5647;DHT22;2845;48.626;9.362;2024-02-21T01:56:49;4.50;99.90
5647;DHT22;2845;48.626;9.362;2024-02-21T01:59:25;4.50;99.90
5647;DHT22;2845;48.626;9.362;2024-02-21T02:02:00;4.60;99.90
5647;DHT22;2845;48.626;9.362;2024-02-21T02:04:34;4.50;99.90
5647;DHT22;2845;48.626;9.362;2024-02-21T02:07:09;4.50;99.90
5647;DHT22;2845;48.626;9.362;2024-02-21T02:09:43;4.50;99.90
5647;DHT22;2845;48.626;9.362;2024-02-21T02:12:17;4.60;99.90
5647;DHT22;2845;48.626;9.362;2024-02-21T02:14:59;4.50;99.90
5647;DHT22;2845;48.626;9.362;2024-02-21T02:17:33;4.50;99.90
5647;DHT22;2845;48.626;9.362;2024-02-21T02:20:08;4.50;99.90
5647;DHT22;2845;48.626;9.362;2024-02-21T02:22:43;4.50;99.90
5647;DHT22;2845;48.626;9.362;2024-02-21T02:25:20;4.60;99.90
5647;DHT22;2845;48.626;9.362;2024-02-21T02:27:54;4.50;99.90
5647;DHT22;2845;48.626;9.362;2024-02-21T02:30:28;4.60;99.90
5647;DHT22;2845;48.626;9.362;2024-02-21T02:33:03;4.60;99.90
5647;DHT22;2845;48.626;9.362;2024-02-21T02:35:38;4.60;99.90
5647;DHT22;2845;48.626;9.362;2024-02-21T02:38:12;4.60;99.90
5647;DHT22;2845;48.626;9.362;2024-02-21T02:40:49;4.60;99.90
5647;DHT22;2845;48.626;9.362;2024-02-21T02:43:23;4.50;99.90
5647;DHT22;2845;48.626;9.362;2024-02-21T02:45:57;4.60;99.90
5647;DHT22;2845;48.626;9.362;2024-02-21T02:48:31;4.60;99.90
5647;DHT22;2845;48.626;9.362;2024-02-21T02:51:05;4.60;99.90
5647;DHT22;2845;48.626;9.362;2024-02-21T02:53:39;4.70;99.90
5647;DHT22;2845;48.626;9.362;2024-02-21T02:56:18;4.80;99.90
5647;DHT22;2845;48.626;9.362;2024-02-21T02:58:52;4.80;99.90
5647;DHT22;2845;48.626;9.362;2024-02-21T03:01:26;4.80;99.90
5647;DHT22;2845;48.626;9.362;2024-02-21T03:04:00;4.80;99.90
5647;DHT22;2845;48.626;9.362;2024-02-21T03:06:35;4.80;99.90
5647;DHT22;2845;48.626;9.362;2024-02-21T03:09:10;4.80;99.90
5647;DHT22;2845;48.626;9.362;2024-02-21T03:11:46;4.80;99.90
5647;DHT22;2845;48.626;9.362;2024-02-21T03:14:20;4.90;99.90
5647;DHT22;2845;48.626;9.362;2024-02-21T03:16:54;2.10;99.50
5647;DHT22;2845;48.626;9.362;2024-02-21T03:19:29;4.90;99.90
5647;DHT22;2845;48.626;9.362;2024-02-21T03:22:03;4.90;99.90
5647;DHT22;2845;48.626;9.362;2024-02-21T03:24:38;5.00;99.90
5647;DHT22;2845;48.626;9.362;2024-02-21T03:27:14;5.00;99.90
5647;DHT22;2845;48.626;9.362;2024-02-21T03:29:48;5.00;99.90
5647;DHT22;2845;48.626;9.362;2024-02-21T03:32:22;5.10;99.90
5647;DHT22;2845;48.626;9.362;2024-02-21T03:34:57;5.00;99.90
5647;DHT22;2845;48.626;9.362;2024-02-21T03:37:31;5.00;99.90
5647;DHT22;2845;48.626;9.362;2024-02-21T03:40:08;4.90;99.90
5647;DHT22;2845;48.626;9.362;2024-02-21T03:42:44;4.90;99.90
5647;DHT22;2845;48.626;9.362;2024-02-21T03:45:18;4.80;99.90
5647;DHT22;2845;48.626;9.362;2024-02-21T03:47:52;4.80;99.90
5647;DHT22;2845;48.626;9.362;2024-02-21T03:50:26;4.80;99.90
5647;DHT22;2845;48.626;9.362;2024-02-21T03:53:00;4.80;99.90
5647;DHT22;2845;48.626;9.362;2024-02-21T03:55:35;4.80;99.90
5647;DHT22;2845;48.626;9.362;2024-02-21T03:58:10;4.80;99.90
5647;DHT22;2845;48.626;9.362;2024-02-21T04:00:44;6.60;99.90
5647;DHT22;2845;48.626;9.362;2024-02-21T04:03:18;4.80;99.90
5647;DHT22;2845;48.626;9.362;2024-02-21T04:05:52;4.70;99.90
5647;DHT22;2845;48.626;9.362;2024-02-21T04:08:27;4.60;99.90
5647;DHT22;2845;48.626;9.362;2024-02-21T04:11:01;4.50;99.90
5647;DHT22;2845;48.626;9.362;2024-02-21T04:13:36;4.60;99.90
5647;DHT22;2845;48.626;9.362;2024-02-21T04:16:10;4.50;99.90
5647;DHT22;2845;48.626;9.362;2024-02-21T04:18:45;4.60;99.90
5647;DHT22;2845;48.626;9.362;2024-02-21T04:21:19;4.50;99.90
5647;DHT22;2845;48.626;9.362;2024-02-21T04:23:53;4.50;99.90
5647;DHT22;2845;48.626;9.362;2024-02-21T04:26:27;4.50;99.90
5647;DHT22;2845;48.626;9.362;2024-02-21T04:29:02;4.50;99.90
5647;DHT22;2845;48.626;9.362;2024-02-21T04:31:37;4.50;99.90
5647;DHT22;2845;48.626;9.362;2024-02-21T04:34:11;4.50;99.90
5647;DHT22;2845;48.626;9.362;2024-02-21T04:36:45;4.50;99.90
5647;DHT22;2845;48.626;9.362;2024-02-21T04:39:19;4.60;99.90
5647;DHT22;2845;48.626;9.362;2024-02-21T04:41:53;4.50;99.90
5647;DHT22;2845;48.626;9.362;2024-02-21T04:44:28;4.50;99.90
5647;DHT22;2845;48.626;9.362;2024-02-21T04:47:03;4.40;99.90
5647;DHT22;2845;48.626;9.362;2024-02-21T04:49:38;4.30;99.90
5647;DHT22;2845;48.626;9.362;2024-02-21T04:52:12;4.30;99.90
5647;DHT22;2845;48.626;9.362;2024-02-21T04:54:46;4.30;99.90
5647;DHT22;2845;48.626;9.362;2024-02-21T04:57:21;4.30;99.90
5647;DHT22;2845;48.626;9.362;2024-02-21T04:59:56;4.20;99.90
5647;DHT22;2845;48.626;9.362;2024-02-21T05:02:30;4.10;99.90
5647;DHT22;2845;48.626;9.362;2024-02-21T05:05:05;4.10;99.90
5647;DHT22;2845;48.626;9.362;2024-02-21T05:07:39;4.10;99.90
5647;DHT22;2845;48.626;9.362;2024-02-21T05:10:13;3.90;99.90
5647;DHT22;2845;48.626;9.362;2024-02-21T05:12:48;3.90;99.90
5647;DHT22;2845;48.626;9.362;2024-02-21T05:15:23;3.90;99.90
5647;DHT22;2845;48.626;9.362;2024-02-21T05:17:57;3.90;99.90
5647;DHT22;2845;48.626;9.362;2024-02-21T05:20:32;3.80;99.90
5647;DHT22;2845;48.626;9.362;2024-02-21T05:23:07;3.90;99.90
5647;DHT22;2845;48.626;9.362;2024-02-21T05:25:41;3.80;99.90
5647;DHT22;2845;48.626;9.362;2024-02-21T05:28:15;3.80;99.90
5647;DHT22;2845;48.626;9.362;2024-02-21T05:30:50;3.80;99.90
5647;DHT22;2845;48.626;9.362;2024-02-21T05:33:25;3.80;99.90
5647;DHT22;2845;48.626;9.362;2024-02-21T05:35:59;3.80;99.90
5647;DHT22;2845;48.626;9.362;2024-02-21T05:38:33;3.70;99.90
5647;DHT22;2845;48.626;9.362;2024-02-21T05:41:08;3.60;99.90
5647;DHT22;2845;48.626;9.362;2024-02-21T05:43:44;3.60;99.90
5647;DHT22;2845;48.626;9.362;2024-02-21T05:46:20;3.50;99.90
5647;DHT22;2845;48.626;9.362;2024-02-21T05:48:54;3.50;99.90
5647;DHT22;2845;48.626;9.362;2024-02-21T05:51:32;3.40;99.90
5647;DHT22;2845;48.626;9.362;2024-02-21T05:54:06;3.30;99.90
5647;DHT22;2845;48.626;9.362;2024-02-21T05:56:44;3.20;99.90
5647;DHT22;2845;48.626;9.362;2024-02-21T05:59:18;3.00;99.90
5647;DHT22;2845;48.626;9.362;2024-02-21T06:04:32;3.00;99.90
5647;DHT22;2845;48.626;9.362;2024-02-21T06:07:06;3.10;99.90
5647;DHT22;2845;48.626;9.362;2024-02-21T06:09:40;3.00;99.90
5647;DHT22;2845;48.626;9.362;2024-02-21T06:12:15;3.00;99.90
5647;DHT22;2845;48.626;9.362;2024-02-21T06:14:49;3.10;99.90
5647;DHT22;2845;48.626;9.362;2024-02-21T06:17:24;3.00;99.90
5647;DHT22;2845;48.626;9.362;2024-02-21T06:19:59;3.00;99.90
5647;DHT22;2845;48.626;9.362;2024-02-21T06:22:33;3.00;99.90
5647;DHT22;2845;48.626;9.362;2024-02-21T06:25:19;2.90;99.90
5647;DHT22;2845;48.626;9.362;2024-02-21T06:27:55;0.50;99.90
5647;DHT22;2845;48.626;9.362;2024-02-21T06:30:55;2.50;99.90
5647;DHT22;2845;48.626;9.362;2024-02-21T06:36:29;2.90;99.90
5647;DHT22;2845;48.626;9.362;2024-02-21T06:39:15;5.60;99.90
5647;DHT22;2845;48.626;9.362;2024-02-21T06:41:54;2.90;99.90
5647;DHT22;2845;48.626;9.362;2024-02-21T06:44:38;6.20;99.90
5647;DHT22;2845;48.626;9.362;2024-02-21T06:47:15;6.70;99.90
5647;DHT22;2845;48.626;9.362;2024-02-21T06:49:58;7.50;99.90
5647;DHT22;2845;48.626;9.362;2024-02-21T06:52:35;4.20;99.90
5647;DHT22;2845;48.626;9.362;2024-02-21T06:55:17;6.10;99.90
5647;DHT22;2845;48.626;9.362;2024-02-21T06:57:54;3.10;99.90
5647;DHT22;2845;48.626;9.362;2024-02-21T07:00:52;6.10;99.90
5647;DHT22;2845;48.626;9.362;2024-02-21T07:03:29;7.00;99.90
5647;DHT22;2845;48.626;9.362;2024-02-21T07:08:40;3.00;99.90
5647;DHT22;2845;48.626;9.362;2024-02-21T07:11:14;3.10;99.90
5647;DHT22;2845;48.626;9.362;2024-02-21T07:13:48;3.60;99.90
5647;DHT22;2845;48.626;9.362;2024-02-21T07:16:23;1.70;99.90
5647;DHT22;2845;48.626;9.362;2024-02-21T07:18:57;6.60;99.90
5647;DHT22;2845;48.626;9.362;2024-02-21T07:24:10;3.30;99.90
5647;DHT22;2845;48.626;9.362;2024-02-21T07:26:45;3.40;99.90
5647;DHT22;2845;48.626;9.362;2024-02-21T07:29:19;3.50;99.90
5647;DHT22;2845;48.626;9.362;2024-02-21T07:31:53;3.80;99.90
5647;DHT22;2845;48.626;9.362;2024-02-21T07:34:27;4.00;99.90
5647;DHT22;2845;48.626;9.362;2024-02-21T07:37:03;4.10;99.90
5647;DHT22;2845;48.626;9.362;2024-02-21T07:39:37;4.20;99.90
5647;DHT22;2845;48.626;9.362;2024-02-21T07:42:12;4.20;99.90
5647;DHT22;2845;48.626;9.362;2024-02-21T07:44:46;4.30;99.90
5647;DHT22;2845;48.626;9.362;2024-02-21T07:47:20;4.30;99.90
5647;DHT22;2845;48.626;9.362;2024-02-21T07:49:54;4.40;99.90
5647;DHT22;2845;48.626;9.362;2024-02-21T07:55:05;4.60;99.90
5647;DHT22;2845;48.626;9.362;2024-02-21T07:57:39;4.70;99.90
5647;DHT22;2845;48.626;9.362;2024-02-21T08:00:14;4.80;99.90
5647;DHT22;2845;48.626;9.362;2024-02-21T08:02:52;4.90;99.70
5647;DHT22;2845;48.626;9.362;2024-02-21T08:05:26;5.00;99.50
5647;DHT22;2845;48.626;9.362;2024-02-21T08:10:40;5.30;99.30
5647;DHT22;2845;48.626;9.362;2024-02-21T08:13:14;5.40;99.10
5647;DHT22;2845;48.626;9.362;2024-02-21T08:15:48;5.60;99.00
5647;DHT22;2845;48.626;9.362;2024-02-21T08:18:23;5.70;98.90
5647;DHT22;2845;48.626;9.362;2024-02-21T08:20:57;5.80;98.80
5647;DHT22;2845;48.626;9.362;2024-02-21T08:23:32;6.10;98.70
5647;DHT22;2845;48.626;9.362;2024-02-21T08:26:07;6.30;98.60
5647;DHT22;2845;48.626;9.362;2024-02-21T08:28:41;6.50;98.40
5647;DHT22;2845;48.626;9.362;2024-02-21T08:31:18;6.60;98.10
5647;DHT22;2845;48.626;9.362;2024-02-21T08:33:53;6.80;97.80
5647;DHT22;2845;48.626;9.362;2024-02-21T08:36:29;6.90;97.50
5647;DHT22;2845;48.626;9.362;2024-02-21T08:41:39;7.70;97.30
5647;DHT22;2845;48.626;9.362;2024-02-21T08:44:28;7.40;96.80
5647;DHT22;2845;48.626;9.362;2024-02-21T08:47:03;7.60;96.70
5647;DHT22;2845;48.626;9.362;2024-02-21T08:49:38;7.60;96.50
5647;DHT22;2845;48.626;9.362;2024-02-21T08:52:13;7.70;96.50
5647;DHT22;2845;48.626;9.362;2024-02-21T08:54:48;7.80;96.30
5647;DHT22;2845;48.626;9.362;2024-02-21T08:57:26;7.90;96.10
5647;DHT22;2845;48.626;9.362;2024-02-21T09:00:00;8.00;96.00
5647;DHT22;2845;48.626;9.362;2024-02-21T09:02:40;8.00;96.00
5647;DHT22;2845;48.626;9.362;2024-02-21T09:05:15;9.30;96.00
5647;DHT22;2845;48.626;9.362;2024-02-21T09:07:50;8.30;95.70
5647;DHT22;2845;48.626;9.362;2024-02-21T09:13:00;8.20;95.30
5647;DHT22;2845;48.626;9.362;2024-02-21T09:15:36;8.20;95.20
5647;DHT22;2845;48.626;9.362;2024-02-21T09:18:10;8.40;95.30
5647;DHT22;2845;48.626;9.362;2024-02-21T09:20:45;8.40;95.20
5647;DHT22;2845;48.626;9.362;2024-02-21T09:23:20;8.50;95.20
5647;DHT22;2845;48.626;9.362;2024-02-21T09:25:55;8.60;95.20
5647;DHT22;2845;48.626;9.362;2024-02-21T09:28:30;8.60;94.80
5647;DHT22;2845;48.626;9.362;2024-02-21T09:31:06;7.90;94.70
5647;DHT22;2845;48.626;9.362;2024-02-21T09:33:40;8.70;95.10
5647;DHT22;2845;48.626;9.362;2024-02-21T09:36:15;8.40;95.10
5647;DHT22;2845;48.626;9.362;2024-02-21T09:38:49;7.70;94.60
5647;DHT22;2845;48.626;9.362;2024-02-21T09:41:26;8.80;95.00
5647;DHT22;2845;48.626;9.362;2024-02-21T09:44:01;8.80;94.90
5647;DHT22;2845;48.626;9.362;2024-02-21T09:46:42;8.80;94.80
5647;DHT22;2845;48.626;9.362;2024-02-21T09:49:25;8.90;94.80
5647;DHT22;2845;48.626;9.362;2024-02-21T09:52:05;8.90;94.80
5647;DHT22;2845;48.626;9.362;2024-02-21T09:54:39;11.60;95.30
5647;DHT22;2845;48.626;9.362;2024-02-21T09:57:19;8.90;94.60
5647;DHT22;2845;48.626;9.362;2024-02-21T09:59:55;9.10;94.60
5647;DHT22;2845;48.626;9.362;2024-02-21T10:02:31;9.20;94.50
5647;DHT22;2845;48.626;9.362;2024-02-21T10:05:06;10.10;94.50
5647;DHT22;2845;48.626;9.362;2024-02-21T10:07:41;9.40;94.30
5647;DHT22;2845;48.626;9.362;2024-02-21T10:10:15;9.40;94.10
5647;DHT22;2845;48.626;9.362;2024-02-21T10:15:27;9.60;93.90
5647;DHT22;2845;48.626;9.362;2024-02-21T10:18:02;9.80;93.70
5647;DHT22;2845;48.626;9.362;2024-02-21T10:20:37;9.90;93.80
5647;DHT22;2845;48.626;9.362;2024-02-21T10:23:12;10.00;93.50
5647;DHT22;2845;48.626;9.362;2024-02-21T10:25:46;10.10;93.70
5647;DHT22;2845;48.626;9.362;2024-02-21T10:28:24;10.10;93.30
5647;DHT22;2845;48.626;9.362;2024-02-21T10:30:58;10.10;93.30
5647;DHT22;2845;48.626;9.362;2024-02-21T10:33:32;12.40;93.50
5647;DHT22;2845;48.626;9.362;2024-02-21T10:36:07;11.80;93.40
5647;DHT22;2845;48.626;9.362;2024-02-21T10:38:42;10.20;93.10
5647;DHT22;2845;48.626;9.362;2024-02-21T10:41:16;10.40;92.90
5647;DHT22;2845;48.626;9.362;2024-02-21T10:43:55;10.50;92.60
5647;DHT22;2845;48.626;9.362;2024-02-21T10:46:30;10.50;92.80
5647;DHT22;2845;48.626;9.362;2024-02-21T10:49:12;10.50;92.60
5647;DHT22;2845;48.626;9.362;2024-02-21T10:51:55;10.70;92.50
5647;DHT22;2845;48.626;9.362;2024-02-21T10:54:40;10.80;92.40
5647;DHT22;2845;48.626;9.362;2024-02-21T10:57:23;10.50;92.30
5647;DHT22;2845;48.626;9.362;2024-02-21T11:00:01;11.00;92.10
5647;DHT22;2845;48.626;9.362;2024-02-21T11:02:36;11.00;91.90
5647;DHT22;2845;48.626;9.362;2024-02-21T11:05:13;11.20;92.00
5647;DHT22;2845;48.626;9.362;2024-02-21T11:07:47;12.80;92.30
5647;DHT22;2845;48.626;9.362;2024-02-21T11:10:23;13.30;92.20
5647;DHT22;2845;48.626;9.362;2024-02-21T11:13:06;11.70;91.80
5647;DHT22;2845;48.626;9.362;2024-02-21T11:15:42;11.70;91.40
5647;DHT22;2845;48.626;9.362;2024-02-21T11:18:23;11.70;91.00
5647;DHT22;2845;48.626;9.362;2024-02-21T11:20:57;11.80;91.00
5647;DHT22;2845;48.626;9.362;2024-02-21T11:23:32;11.90;90.90
5647;DHT22;2845;48.626;9.362;2024-02-21T11:26:06;12.00;90.80
5647;DHT22;2845;48.626;9.362;2024-02-21T11:28:41;12.10;90.60
5647;DHT22;2845;48.626;9.362;2024-02-21T11:31:18;12.20;90.30
5647;DHT22;2845;48.626;9.362;2024-02-21T11:33:52;12.00;90.10
5647;DHT22;2845;48.626;9.362;2024-02-21T11:36:27;14.20;90.80
5647;DHT22;2845;48.626;9.362;2024-02-21T11:39:03;12.30;90.20
5647;DHT22;2845;48.626;9.362;2024-02-21T11:41:38;13.70;90.60
5647;DHT22;2845;48.626;9.362;2024-02-21T11:44:12;13.50;90.60
5647;DHT22;2845;48.626;9.362;2024-02-21T11:46:48;12.60;90.50
5647;DHT22;2845;48.626;9.362;2024-02-21T11:49:24;14.60;90.80
5647;DHT22;2845;48.626;9.362;2024-02-21T11:51:59;12.80;90.10
5647;DHT22;2845;48.626;9.362;2024-02-21T11:54:36;13.90;90.50
5647;DHT22;2845;48.626;9.362;2024-02-21T11:57:11;14.20;90.70
5647;DHT22;2845;48.626;9.362;2024-02-21T11:59:45;13.00;90.40
5647;DHT22;2845;48.626;9.362;2024-02-21T12:02:21;13.40;90.30
5647;DHT22;2845;48.626;9.362;2024-02-21T12:04:55;13.00;89.80
5647;DHT22;2845;48.626;9.362;2024-02-21T12:07:30;14.80;90.60
5647;DHT22;2845;48.626;9.362;2024-02-21T12:10:07;12.90;89.40
5647;DHT22;2845;48.626;9.362;2024-02-21T12:12:43;13.00;89.30
5647;DHT22;2845;48.626;9.362;2024-02-21T12:15:18;12.90;89.30
5647;DHT22;2845;48.626;9.362;2024-02-21T12:17:54;16.30;90.20
5647;DHT22;2845;48.626;9.362;2024-02-21T12:20:28;13.00;89.00
5647;DHT22;2845;48.626;9.362;2024-02-21T12:23:03;13.00;89.40
5647;DHT22;2845;48.626;9.362;2024-02-21T12:25:39;13.10;90.00
5647;DHT22;2845;48.626;9.362;2024-02-21T12:28:13;13.10;89.70
5647;DHT22;2845;48.626;9.362;2024-02-21T12:30:50;13.20;89.80
5647;DHT22;2845;48.626;9.362;2024-02-21T12:33:26;13.30;90.00
5647;DHT22;2845;48.626;9.362;2024-02-21T12:36:01;13.40;89.80
5647;DHT22;2845;48.626;9.362;2024-02-21T12:38:35;13.30;89.90
5647;DHT22;2845;48.626;9.362;2024-02-21T12:41:09;13.40;90.00
5647;DHT22;2845;48.626;9.362;2024-02-21T12:43:43;14.10;89.70
5647;DHT22;2845;48.626;9.362;2024-02-21T12:46:18;13.50;88.80
5647;DHT22;2845;48.626;9.362;2024-02-21T12:48:53;13.50;89.10
5647;DHT22;2845;48.626;9.362;2024-02-21T12:51:27;13.50;89.50
5647;DHT22;2845;48.626;9.362;2024-02-21T12:54:02;14.50;89.90
5647;DHT22;2845;48.626;9.362;2024-02-21T12:56:36;13.60;89.60
5647;DHT22;2845;48.626;9.362;2024-02-21T12:59:10;13.60;89.60
5647;DHT22;2845;48.626;9.362;2024-02-21T13:01:44;13.60;89.20
5647;DHT22;2845;48.626;9.362;2024-02-21T13:06:56;13.60;88.60
5647;DHT22;2845;48.626;9.362;2024-02-21T13:09:30;13.60;88.50
5647;DHT22;2845;48.626;9.362;2024-02-21T13:12:04;13.70;89.20
5647;DHT22;2845;48.626;9.362;2024-02-21T13:14:40;13.70;88.40
5647;DHT22;2845;48.626;9.362;2024-02-21T13:17:16;15.10;89.10
5647;DHT22;2845;48.626;9.362;2024-02-21T13:22:27;13.80;88.00
5647;DHT22;2845;48.626;9.362;2024-02-21T13:25:01;13.80;88.50
5647;DHT22;2845;48.626;9.362;2024-02-21T13:27:35;14.40;88.70
5647;DHT22;2845;48.626;9.362;2024-02-21T13:30:10;13.80;88.30
5647;DHT22;2845;48.626;9.362;2024-02-21T13:32:45;13.80;87.20
5647;DHT22;2845;48.626;9.362;2024-02-21T13:35:21;15.70;88.20
5647;DHT22;2845;48.626;9.362;2024-02-21T13:37:55;13.70;87.80
5647;DHT22;2845;48.626;9.362;2024-02-21T13:40:30;13.70;87.80
5647;DHT22;2845;48.626;9.362;2024-02-21T13:43:04;14.00;88.30
5647;DHT22;2845;48.626;9.362;2024-02-21T13:45:55;13.80;88.50
5647;DHT22;2845;48.626;9.362;2024-02-21T13:48:31;13.80;87.80
5647;DHT22;2845;48.626;9.362;2024-02-21T13:51:08;13.80;87.60
5647;DHT22;2845;48.626;9.362;2024-02-21T13:53:42;13.70;88.00
5647;DHT22;2845;48.626;9.362;2024-02-21T13:56:16;14.80;88.60
5647;DHT22;2845;48.626;9.362;2024-02-21T13:58:51;13.70;88.40
5647;DHT22;2845;48.626;9.362;2024-02-21T14:01:25;13.70;88.30
5647;DHT22;2845;48.626;9.362;2024-02-21T14:04:00;13.80;88.10
5647;DHT22;2845;48.626;9.362;2024-02-21T14:06:36;14.00;88.10
5647;DHT22;2845;48.626;9.362;2024-02-21T14:09:15;13.70;88.10
5647;DHT22;2845;48.626;9.362;2024-02-21T14:11:49;14.80;89.30
5647;DHT22;2845;48.626;9.362;2024-02-21T14:14:24;13.60;88.30
5647;DHT22;2845;48.626;9.362;2024-02-21T14:16:58;13.60;87.20
5647;DHT22;2845;48.626;9.362;2024-02-21T14:19:33;13.60;87.30
5647;DHT22;2845;48.626;9.362;2024-02-21T14:22:08;13.60;87.90
5647;DHT22;2845;48.626;9.362;2024-02-21T14:24:43;13.60;87.90
5647;DHT22;2845;48.626;9.362;2024-02-21T14:27:18;13.60;87.80
5647;DHT22;2845;48.626;9.362;2024-02-21T14:29:52;13.60;88.00
5647;DHT22;2845;48.626;9.362;2024-02-21T14:32:27;13.60;88.50
5647;DHT22;2845;48.626;9.362;2024-02-21T14:35:02;13.50;88.60
5647;DHT22;2845;48.626;9.362;2024-02-21T14:37:39;13.60;88.40
5647;DHT22;2845;48.626;9.362;2024-02-21T14:40:13;14.50;88.80
5647;DHT22;2845;48.626;9.362;2024-02-21T14:42:48;13.60;88.60
5647;DHT22;2845;48.626;9.362;2024-02-21T14:45:22;13.70;88.40
5647;DHT22;2845;48.626;9.362;2024-02-21T14:47:56;13.80;88.40
5647;DHT22;2845;48.626;9.362;2024-02-21T14:50:30;13.80;88.80
5647;DHT22;2845;48.626;9.362;2024-02-21T14:53:06;13.80;88.60
5647;DHT22;2845;48.626;9.362;2024-02-21T14:55:40;13.80;88.40
5647;DHT22;2845;48.626;9.362;2024-02-21T14:58:15;13.80;88.20
5647;DHT22;2845;48.626;9.362;2024-02-21T15:00:50;13.70;88.50
5647;DHT22;2845;48.626;9.362;2024-02-21T15:03:25;13.70;88.10
5647;DHT22;2845;48.626;9.362;2024-02-21T15:06:00;13.70;88.80
5647;DHT22;2845;48.626;9.362;2024-02-21T15:08:36;13.60;88.90
5647;DHT22;2845;48.626;9.362;2024-02-21T15:11:10;13.60;87.60
5647;DHT22;2845;48.626;9.362;2024-02-21T15:13:44;13.50;87.60
5647;DHT22;2845;48.626;9.362;2024-02-21T15:16:19;13.40;87.80
5647;DHT22;2845;48.626;9.362;2024-02-21T15:18:53;13.40;87.60
5647;DHT22;2845;48.626;9.362;2024-02-21T15:21:27;13.30;88.00
5647;DHT22;2845;48.626;9.362;2024-02-21T15:24:03;13.20;88.00
5647;DHT22;2845;48.626;9.362;2024-02-21T15:26:37;13.10;88.20
5647;DHT22;2845;48.626;9.362;2024-02-21T15:29:11;13.00;88.30
5647;DHT22;2845;48.626;9.362;2024-02-21T15:31:45;13.00;88.70
5647;DHT22;2845;48.626;9.362;2024-02-21T15:34:20;13.00;89.00
5647;DHT22;2845;48.626;9.362;2024-02-21T15:36:54;13.40;89.00
5647;DHT22;2845;48.626;9.362;2024-02-21T15:39:29;12.80;88.90
5647;DHT22;2845;48.626;9.362;2024-02-21T15:42:04;12.80;89.80
5647;DHT22;2845;48.626;9.362;2024-02-21T15:44:39;12.80;89.90
5647;DHT22;2845;48.626;9.362;2024-02-21T15:47:13;12.60;90.10
5647;DHT22;2845;48.626;9.362;2024-02-21T15:49:48;13.20;90.60
5647;DHT22;2845;48.626;9.362;2024-02-21T15:52:22;12.40;90.20
5647;DHT22;2845;48.626;9.362;2024-02-21T15:54:58;12.40;90.30
5647;DHT22;2845;48.626;9.362;2024-02-21T15:57:32;12.70;90.40
5647;DHT22;2845;48.626;9.362;2024-02-21T16:00:06;13.30;90.90
5647;DHT22;2845;48.626;9.362;2024-02-21T16:02:44;12.20;90.50
5647;DHT22;2845;48.626;9.362;2024-02-21T16:05:19;13.10;90.90
5647;DHT22;2845;48.626;9.362;2024-02-21T16:07:53;12.00;90.80
5647;DHT22;2845;48.626;9.362;2024-02-21T16:10:29;11.90;90.80
5647;DHT22;2845;48.626;9.362;2024-02-21T16:13:04;11.80;91.40
5647;DHT22;2845;48.626;9.362;2024-02-21T16:15:39;11.70;91.50
5647;DHT22;2845;48.626;9.362;2024-02-21T16:18:13;11.70;91.70
5647;DHT22;2845;48.626;9.362;2024-02-21T16:20:53;15.60;92.70
5647;DHT22;2845;48.626;9.362;2024-02-21T16:23:28;11.50;91.90
5647;DHT22;2845;48.626;9.362;2024-02-21T16:26:04;11.40;92.10
5647;DHT22;2845;48.626;9.362;2024-02-21T16:28:38;11.40;92.20
5647;DHT22;2845;48.626;9.362;2024-02-21T16:31:12;11.30;92.20
5647;DHT22;2845;48.626;9.362;2024-02-21T16:33:46;11.20;92.70
5647;DHT22;2845;48.626;9.362;2024-02-21T16:36:21;11.10;92.90
5647;DHT22;2845;48.626;9.362;2024-02-21T16:38:58;11.00;93.20
5647;DHT22;2845;48.626;9.362;2024-02-21T16:41:34;11.00;93.30
5647;DHT22;2845;48.626;9.362;2024-02-21T16:44:08;10.90;93.40
5647;DHT22;2845;48.626;9.362;2024-02-21T16:46:43;10.80;93.60
5647;DHT22;2845;48.626;9.362;2024-02-21T16:49:17;10.70;93.70
5647;DHT22;2845;48.626;9.362;2024-02-21T16:51:51;10.70;93.70
5647;DHT22;2845;48.626;9.362;2024-02-21T16:54:25;12.20;94.10
5647;DHT22;2845;48.626;9.362;2024-02-21T16:57:01;10.50;93.80
5647;DHT22;2845;48.626;9.362;2024-02-21T16:59:35;10.40;94.00
5647;DHT22;2845;48.626;9.362;2024-02-21T17:02:09;10.30;94.10
5647;DHT22;2845;48.626;9.362;2024-02-21T17:04:44;10.30;94.10
5647;DHT22;2845;48.626;9.362;2024-02-21T17:07:21;13.00;94.90
5647;DHT22;2845;48.626;9.362;2024-02-21T17:10:00;10.10;94.30
5647;DHT22;2845;48.626;9.362;2024-02-21T17:12:35;10.10;94.30
5647;DHT22;2845;48.626;9.362;2024-02-21T17:15:10;10.10;94.40
5647;DHT22;2845;48.626;9.362;2024-02-21T17:17:46;10.00;94.50
5647;DHT22;2845;48.626;9.362;2024-02-21T17:20:20;9.90;94.60
5647;DHT22;2845;48.626;9.362;2024-02-21T17:22:54;11.40;95.00
5647;DHT22;2845;48.626;9.362;2024-02-21T17:25:29;9.80;94.80
5647;DHT22;2845;48.626;9.362;2024-02-21T17:28:05;9.80;94.80
5647;DHT22;2845;48.626;9.362;2024-02-21T17:30:39;9.70;94.80
5647;DHT22;2845;48.626;9.362;2024-02-21T17:33:13;11.50;95.20